createdAt,value
2018-12-06T00:00:22.553Z,67.30
2018-12-06T00:05:25.127Z,66.06
2018-12-06T00:10:27.764Z,65.62
2018-12-06T00:15:30.381Z,65.26
2018-12-06T00:20:32.927Z,64.85
2018-12-06T00:25:35.555Z,64.62
2018-12-06T00:30:38.828Z,63.89
2018-12-06T00:35:41.406Z,62.62
2018-12-06T00:40:44.050Z,63.29
2018-12-06T00:45:46.621Z,62.72
2018-12-06T00:50:49.288Z,63.09
2018-12-06T00:55:52.468Z,62.48
2018-12-06T01:00:55.862Z,62.42
2018-12-06T01:06:00.130Z,62.09
2018-12-06T01:11:02.830Z,61.90
2018-12-06T01:16:05.420Z,62.09
2018-12-06T01:21:08.088Z,61.87
2018-12-06T01:26:11.218Z,62.00
2018-12-06T01:31:13.865Z,61.52
2018-12-06T01:36:16.446Z,62.04
2018-12-06T01:41:18.985Z,62.46
2018-12-06T01:46:21.551Z,61.31
2018-12-06T01:51:24.133Z,61.46
2018-12-06T01:56:26.762Z,61.09
2018-12-06T02:01:29.334Z,61.71
2018-12-06T02:06:31.901Z,59.84
2018-12-06T02:11:34.542Z,59.96
2018-12-06T02:16:37.875Z,59.51
2018-12-06T02:21:40.625Z,59.18
2018-12-06T02:26:43.278Z,59.28
2018-12-06T02:31:47.030Z,59.30
2018-12-06T02:36:49.576Z,58.85
2018-12-06T02:41:52.890Z,57.92
2018-12-06T02:46:55.477Z,58.49
2018-12-06T02:51:59.282Z,58.37
2018-12-06T02:57:01.897Z,57.39
2018-12-06T03:02:04.670Z,56.81
2018-12-06T03:07:07.268Z,56.46
2018-12-06T03:12:09.831Z,57.22
2018-12-06T03:17:12.410Z,58.55
2018-12-06T03:22:15.024Z,59.24
2018-12-06T03:27:17.592Z,59.06
2018-12-06T03:32:20.143Z,58.58
2018-12-06T03:37:22.684Z,59.09
2018-12-06T03:42:25.258Z,59.46
2018-12-06T03:47:27.894Z,58.52
2018-12-06T03:52:30.582Z,58.19
2018-12-06T03:57:33.177Z,58.68
2018-12-06T04:02:35.816Z,58.57
2018-12-06T04:07:38.440Z,58.99
2018-12-06T04:12:41.067Z,59.35
2018-12-06T04:17:43.739Z,59.05
2018-12-06T04:22:46.318Z,59.28
2018-12-06T04:27:48.887Z,58.82
2018-12-06T04:32:51.523Z,59.00
2018-12-06T04:37:54.093Z,59.85
2018-12-06T04:42:56.688Z,58.90
2018-12-06T04:47:59.303Z,59.18
2018-12-06T04:53:01.929Z,59.07
2018-12-06T04:58:06.021Z,60.01
2018-12-06T05:03:08.581Z,60.87
2018-12-06T05:08:11.989Z,62.02
2018-12-06T05:13:14.644Z,62.40
2018-12-06T05:18:17.385Z,63.33
2018-12-06T05:23:19.978Z,62.06
2018-12-06T05:28:22.555Z,61.78
2018-12-06T05:33:25.133Z,61.75
2018-12-06T05:38:28.630Z,61.05
2018-12-06T05:43:31.239Z,61.65
2018-12-06T05:48:34.488Z,61.15
2018-12-06T05:53:37.438Z,60.73
2018-12-06T05:58:40.062Z,60.26
2018-12-06T06:03:43.544Z,60.20
2018-12-06T06:08:46.328Z,59.73
2018-12-06T06:13:48.955Z,59.63
2018-12-06T06:18:51.596Z,59.84
2018-12-06T06:23:54.294Z,59.98
2018-12-06T06:28:57.486Z,60.41
2018-12-06T06:34:00.594Z,59.94
2018-12-06T06:39:04.223Z,60.43
2018-12-06T06:44:06.791Z,60.05
2018-12-06T06:49:13.760Z,60.57
2018-12-06T06:54:17.029Z,60.10
2018-12-06T06:59:25.809Z,60.64
2018-12-06T07:04:24.291Z,60.59
2018-12-06T07:09:26.846Z,60.46
2018-12-06T07:14:29.989Z,60.18
2018-12-06T07:19:32.811Z,61.37
2018-12-06T07:24:36.065Z,61.32
2018-12-06T07:29:38.607Z,61.00
2018-12-06T07:34:41.202Z,61.70
2018-12-06T07:39:43.778Z,61.16
2018-12-06T07:44:47.264Z,61.13
2018-12-06T07:49:50.478Z,61.52
2018-12-06T07:54:53.089Z,61.36
2018-12-06T07:59:56.394Z,61.10
2018-12-06T08:04:59.786Z,61.47
2018-12-06T08:10:02.366Z,61.37
2018-12-06T08:15:06.390Z,61.67
2018-12-06T08:20:09.721Z,61.56
2018-12-06T08:25:12.371Z,61.55
2018-12-06T08:30:14.924Z,61.12
2018-12-06T08:35:17.599Z,61.65
2018-12-06T08:40:20.337Z,61.21
2018-12-06T08:45:22.912Z,62.12
2018-12-06T08:50:25.500Z,61.32
2018-12-06T08:55:28.082Z,61.20
2018-12-06T09:00:30.673Z,61.50
2018-12-06T09:05:33.209Z,61.37
2018-12-06T09:10:36.303Z,61.64
2018-12-06T09:15:39.371Z,61.01
2018-12-06T09:20:43.702Z,61.36
2018-12-06T09:25:46.441Z,61.27
2018-12-06T09:30:49.132Z,61.78
2018-12-06T09:35:51.777Z,61.71
2018-12-06T09:40:54.373Z,61.62
2018-12-06T09:45:57.924Z,61.63
2018-12-06T09:51:00.568Z,61.78
2018-12-06T09:56:03.864Z,61.93
2018-12-06T10:01:06.496Z,62.21
2018-12-06T10:06:09.101Z,62.58
2018-12-06T10:11:11.700Z,62.44
2018-12-06T10:16:14.255Z,62.41
2018-12-06T10:21:17.797Z,61.85
2018-12-06T10:26:20.397Z,62.18
2018-12-06T10:31:22.976Z,62.75
2018-12-06T10:36:26.166Z,62.55
2018-12-06T10:41:28.864Z,62.43
2018-12-06T10:46:31.459Z,62.69
2018-12-06T10:51:40.575Z,62.22
2018-12-06T10:56:43.136Z,63.05
2018-12-06T11:01:47.833Z,63.49
2018-12-06T11:06:50.447Z,63.22
2018-12-06T11:11:53.032Z,63.57
2018-12-06T11:16:57.097Z,63.56
2018-12-06T11:22:00.553Z,63.50
2018-12-06T11:27:03.261Z,63.91
2018-12-06T11:32:05.879Z,64.18
2018-12-06T11:37:08.535Z,64.41
2018-12-06T11:42:11.172Z,64.41
2018-12-06T11:47:13.810Z,64.90
2018-12-06T11:52:16.998Z,65.22
2018-12-06T11:57:19.588Z,65.15
2018-12-06T12:02:22.181Z,65.62
2018-12-06T12:07:24.863Z,65.65
2018-12-06T12:12:27.760Z,66.33
2018-12-06T12:17:30.422Z,66.38
2018-12-06T12:22:33.093Z,66.64
2018-12-06T12:27:35.646Z,67.12
2018-12-06T12:32:38.260Z,67.32
2018-12-06T12:37:40.788Z,67.03
2018-12-06T12:42:43.349Z,67.79
2018-12-06T12:47:45.922Z,67.73
2018-12-06T12:52:49.242Z,68.05
2018-12-06T12:57:52.030Z,68.11
2018-12-06T13:02:54.740Z,68.53
2018-12-06T13:07:57.437Z,68.77
2018-12-06T13:13:01.807Z,69.56
2018-12-06T13:18:04.499Z,69.60
2018-12-06T13:23:07.178Z,69.09
2018-12-06T13:28:09.768Z,69.14
2018-12-06T13:33:13.094Z,69.56
2018-12-06T13:38:16.572Z,69.68
2018-12-06T13:43:19.260Z,69.72
2018-12-06T13:48:21.997Z,69.80
2018-12-06T13:53:24.633Z,69.84
2018-12-06T13:58:27.207Z,69.67
2018-12-06T14:03:29.813Z,69.80
2018-12-06T14:08:32.424Z,70.13
2018-12-06T14:13:35.112Z,69.76
2018-12-06T14:18:37.696Z,71.96
2018-12-06T14:23:40.341Z,74.83
2018-12-06T14:28:42.921Z,76.69
2018-12-06T14:33:45.557Z,78.56
2018-12-06T14:38:48.136Z,78.55
2018-12-06T14:43:50.701Z,80.10
2018-12-06T14:48:53.289Z,80.98
2018-12-06T14:53:55.872Z,82.41
2018-12-06T14:58:58.438Z,83.95
2018-12-06T15:04:01.158Z,84.12
2018-12-06T15:09:06.650Z,84.43
2018-12-06T15:14:09.314Z,85.53
2018-12-06T15:19:11.934Z,84.59
2018-12-06T15:24:14.635Z,85.06
2018-12-06T15:29:17.319Z,85.05
2018-12-06T15:34:19.980Z,84.29
2018-12-06T15:39:22.588Z,83.57
2018-12-06T15:44:25.747Z,83.90
2018-12-06T15:49:28.321Z,83.45
2018-12-06T15:54:30.869Z,83.96
2018-12-06T15:59:33.465Z,83.99
2018-12-06T16:04:36.013Z,84.13
2018-12-06T16:09:38.643Z,83.61
2018-12-06T16:14:41.270Z,82.68
2018-12-06T16:19:43.925Z,83.59
2018-12-06T16:24:47.210Z,83.60
2018-12-06T16:29:51.552Z,82.65
2018-12-06T16:34:55.651Z,83.34
2018-12-06T16:39:58.245Z,82.34
2018-12-06T16:45:00.783Z,82.47
2018-12-06T16:50:04.378Z,82.98
2018-12-06T16:55:07.099Z,82.12
2018-12-06T17:00:11.355Z,82.46
2018-12-06T17:05:13.892Z,82.66
2018-12-06T17:10:16.549Z,81.56
2018-12-06T17:15:19.139Z,81.41
2018-12-06T17:20:22.315Z,82.92
2018-12-06T17:25:25.173Z,84.07
2018-12-06T17:30:27.903Z,84.52
2018-12-06T17:35:30.654Z,83.12
2018-12-06T17:40:33.480Z,83.45
2018-12-06T17:45:36.157Z,83.22
2018-12-06T17:50:39.369Z,83.48
2018-12-06T17:55:49.910Z,83.95
2018-12-06T18:00:52.468Z,83.15
2018-12-06T18:05:55.299Z,82.92
2018-12-06T18:10:58.259Z,83.54
2018-12-06T18:16:00.911Z,83.08
2018-12-06T18:21:03.482Z,83.59
2018-12-06T18:26:06.116Z,83.68
2018-12-06T18:31:09.499Z,83.90
2018-12-06T18:36:12.148Z,83.64
2018-12-06T18:41:14.940Z,84.34
2018-12-06T18:46:18.219Z,84.05
2018-12-06T18:51:20.832Z,84.23
2018-12-06T18:56:23.856Z,84.59
2018-12-06T19:01:26.453Z,84.15
2018-12-06T19:06:29.012Z,84.98
2018-12-06T19:11:32.578Z,84.92
2018-12-06T19:16:35.355Z,84.81
2018-12-06T19:21:38.039Z,85.31
2018-12-06T19:26:41.383Z,84.84
2018-12-06T19:31:44.027Z,85.88
2018-12-06T19:36:46.609Z,85.42
2018-12-06T19:41:49.372Z,85.76
2018-12-06T19:46:52.778Z,85.36
2018-12-06T19:51:55.413Z,85.80
2018-12-06T19:56:58.642Z,86.50
2018-12-06T20:02:01.285Z,86.36
2018-12-06T20:07:04.041Z,86.26
2018-12-06T20:12:06.650Z,86.27
2018-12-06T20:17:09.963Z,85.84
2018-12-06T20:22:38.830Z,85.87
2018-12-06T20:27:41.418Z,86.51
2018-12-06T20:32:44.034Z,86.42
2018-12-06T20:37:46.747Z,86.53
2018-12-06T20:42:49.386Z,86.17
2018-12-06T20:47:53.066Z,86.31
2018-12-06T20:52:55.664Z,85.86
2018-12-06T20:57:58.270Z,85.44
2018-12-06T21:03:00.883Z,85.91
2018-12-06T21:08:03.609Z,85.62
2018-12-06T21:13:06.171Z,85.74
2018-12-06T21:18:09.467Z,85.47
2018-12-06T21:23:12.216Z,85.13
2018-12-06T21:28:14.869Z,85.41
2018-12-06T21:33:17.474Z,86.05
2018-12-06T21:38:20.108Z,86.00
2018-12-06T21:43:22.909Z,85.78
2018-12-06T21:48:25.497Z,86.00
2018-12-06T21:53:28.171Z,85.72
2018-12-06T21:58:30.769Z,85.66
2018-12-06T22:03:33.954Z,85.81
2018-12-06T22:08:36.519Z,85.22
2018-12-06T22:13:39.443Z,85.62
2018-12-06T22:18:42.099Z,85.44
2018-12-06T22:23:45.287Z,85.48
2018-12-06T22:28:47.912Z,85.78
2018-12-06T22:33:50.658Z,85.42
2018-12-06T22:38:53.269Z,85.64
2018-12-06T22:43:55.834Z,85.45
2018-12-06T22:48:58.422Z,85.17
2018-12-06T22:54:01.721Z,85.09
2018-12-06T22:59:05.058Z,85.23
2018-12-06T23:04:07.967Z,85.05
2018-12-06T23:09:10.588Z,85.35
2018-12-06T23:14:14.091Z,85.33
2018-12-06T23:19:17.341Z,85.35
2018-12-06T23:24:19.934Z,85.10
2018-12-06T23:29:22.567Z,85.15
2018-12-06T23:34:25.742Z,85.90
2018-12-06T23:39:28.443Z,85.88
2018-12-06T23:44:31.170Z,85.56
2018-12-06T23:49:33.760Z,85.74
2018-12-06T23:54:36.325Z,85.73
2018-12-06T23:59:38.878Z,85.78
